KAFN/AFN METAR and TAF weather

Enter ICAO airport designator
Station Type Date Time Source
KAFN METAR 2021/04/13 07:52 UTC NOAA

KAFN 130752Z AUTO 00000KT 10SM OVC025 01/00 A2998 RMK AO2 SLP162 T00110000


Station Type Date Time Source
KAFN Decoded METAR 2021/04/13 07:52 UTC NOAA

JAFFREY MUNI-SILVER RANCH, NH, United States (KAFN) 42-48N 72-00W 313M
Apr 13, 2021 - 03:52 AM EDT / 2021.04.13 0752 UTC
Wind: Calm:0
Visibility: 10 mile(s):0
Sky conditions: overcast
Temperature: 34.0 F (1.1 C)
Dew Point: 32.0 F (0.0 C)
Relative Humidity: 92%
Pressure (altimeter): 29.98 in. Hg (1015 hPa)
ob: KAFN 130752Z AUTO 00000KT 10SM OVC025 01/00 A2998 RMK AO2 SLP162 T00110000
cycle: 8

Station Type Date Time Source
KAFN TAF UTC NOAA

Error!

Example: see airport list